createdAt,value
2022-12-19T00:01:57.672Z,100266.31
2022-12-19T00:04:25.241Z,100262.81
2022-12-19T00:06:52.767Z,100256.66
2022-12-19T00:09:20.269Z,100252.34
2022-12-19T00:11:48.781Z,100243.53
2022-12-19T00:14:16.268Z,100239.19
2022-12-19T00:16:44.045Z,100239.22
2022-12-19T00:19:13.480Z,100238.28
2022-12-19T00:21:40.973Z,100230.44
2022-12-19T00:24:15.354Z,100238.22
2022-12-19T00:26:49.555Z,100232.16
2022-12-19T00:29:17.045Z,100233.00
2022-12-19T00:31:44.839Z,100216.34
2022-12-19T00:34:13.744Z,100218.16
2022-12-19T00:36:41.363Z,100216.34
2022-12-19T00:39:10.179Z,100219.88
2022-12-19T00:41:41.566Z,100212.06
2022-12-19T00:44:12.187Z,100221.69
2022-12-19T00:46:39.819Z,100211.06
2022-12-19T00:49:07.294Z,100220.72
2022-12-19T00:51:38.057Z,100210.25
2022-12-19T00:54:07.284Z,100195.41
2022-12-19T00:56:37.502Z,100185.69
2022-12-19T00:59:06.609Z,100200.63
2022-12-19T01:01:36.381Z,100204.06
2022-12-19T01:07:02.301Z,100201.31
2022-12-19T01:09:30.409Z,100183.84
2022-12-19T01:12:15.722Z,100200.56
2022-12-19T01:14:43.704Z,100193.50
2022-12-19T01:17:11.398Z,100183.88
2022-12-19T01:19:43.623Z,100190.81
2022-12-19T01:22:27.927Z,100185.50
2022-12-19T01:24:55.560Z,100176.72
2022-12-19T01:27:23.005Z,100182.91
2022-12-19T01:29:52.881Z,100188.19
2022-12-19T01:32:21.205Z,100196.84
2022-12-19T01:34:48.660Z,100203.91
2022-12-19T01:37:16.155Z,100206.47
2022-12-19T01:39:46.116Z,100207.31
2022-12-19T01:42:16.567Z,100205.59
2022-12-19T01:45:05.087Z,100187.19
2022-12-19T01:47:36.267Z,100184.50
2022-12-19T01:50:04.805Z,100184.56
2022-12-19T01:52:32.471Z,100188.13
2022-12-19T01:55:02.214Z,100167.03
2022-12-19T01:57:30.484Z,100149.63
2022-12-19T02:00:01.343Z,100141.72
2022-12-19T02:02:32.934Z,100139.81
2022-12-19T02:05:01.466Z,100127.63
2022-12-19T02:07:29.283Z,100133.78
2022-12-19T02:09:58.484Z,100119.78
2022-12-19T02:12:28.937Z,100109.06
2022-12-19T02:15:02.718Z,100105.59
2022-12-19T02:17:42.502Z,100109.13
2022-12-19T02:20:40.795Z,100091.66
2022-12-19T02:23:34.915Z,100067.19
2022-12-19T02:26:23.050Z,100062.88
2022-12-19T02:29:10.006Z,100054.81
2022-12-19T02:31:45.696Z,100048.69
2022-12-19T02:34:21.633Z,100033.78
2022-12-19T02:36:55.431Z,100031.88
2022-12-19T02:39:29.601Z,100031.75
2022-12-19T02:41:59.943Z,100012.47
2022-12-19T02:44:31.437Z,100007.13
2022-12-19T02:47:03.056Z,100012.34
2022-12-19T02:49:31.421Z,100015.84
2022-12-19T02:51:59.013Z,100031.50
2022-12-19T02:54:26.773Z,100021.88
2022-12-19T02:57:02.370Z,100019.03
2022-12-19T02:59:47.692Z,100028.69
2022-12-19T03:02:27.893Z,100027.56
2022-12-19T03:05:00.827Z,100030.31
2022-12-19T03:07:32.929Z,100021.31
2022-12-19T03:10:10.000Z,100019.41
2022-12-19T03:12:41.403Z,100010.69
2022-12-19T03:15:12.979Z,100022.22
2022-12-19T03:17:42.316Z,100019.41
2022-12-19T03:20:19.588Z,100009.69
2022-12-19T03:22:47.524Z,100009.75
2022-12-19T03:25:15.339Z,100001.75
2022-12-19T03:27:43.778Z,99995.63
2022-12-19T03:30:14.158Z,99992.13
2022-12-19T03:32:46.193Z,99984.16
2022-12-19T03:35:18.550Z,99989.34
2022-12-19T03:37:49.687Z,99979.72
2022-12-19T03:40:19.690Z,99993.91
2022-12-19T03:43:07.014Z,99992.88
2022-12-19T03:45:44.013Z,99992.94
2022-12-19T03:48:17.687Z,99991.34
2022-12-19T03:50:54.886Z,99988.66
2022-12-19T03:53:37.354Z,99981.47
2022-12-19T03:56:14.582Z,99981.09
2022-12-19T03:58:48.806Z,99970.31
2022-12-19T04:01:16.880Z,99961.66
2022-12-19T04:03:45.909Z,99941.41
2022-12-19T04:06:15.863Z,99946.06
2022-12-19T04:08:43.715Z,99934.63
2022-12-19T04:11:19.297Z,99944.28
2022-12-19T04:13:53.153Z,99938.00
2022-12-19T04:16:27.903Z,99933.69
2022-12-19T04:19:04.241Z,99930.25
2022-12-19T04:21:37.709Z,99929.50
2022-12-19T04:24:12.036Z,99935.56
2022-12-19T04:26:42.193Z,99952.97
2022-12-19T04:29:13.034Z,99934.53
2022-12-19T04:31:41.178Z,99928.28
2022-12-19T04:34:09.986Z,99937.91
2022-12-19T04:36:37.503Z,99944.88
2022-12-19T04:39:05.173Z,99939.59
2022-12-19T04:41:32.631Z,99931.00
2022-12-19T04:44:00.101Z,99921.19
2022-12-19T04:46:27.567Z,99929.69
2022-12-19T04:48:55.024Z,99942.84
2022-12-19T04:51:23.831Z,99942.34
2022-12-19T04:53:51.288Z,99923.88
2022-12-19T04:56:18.737Z,99928.16
2022-12-19T04:58:46.181Z,99921.28
2022-12-19T05:01:14.187Z,99922.28
2022-12-19T05:03:42.212Z,99929.31
2022-12-19T05:06:12.035Z,99936.25
2022-12-19T05:08:42.343Z,99915.19
2022-12-19T05:11:14.583Z,99915.81
2022-12-19T05:13:46.546Z,99915.03
2022-12-19T05:16:15.783Z,99915.78
2022-12-19T05:18:43.907Z,99917.34
2022-12-19T05:21:11.910Z,99919.06
2022-12-19T05:23:40.994Z,99904.25
2022-12-19T05:26:08.874Z,99913.91
2022-12-19T05:28:36.396Z,99924.53
2022-12-19T05:31:05.988Z,99917.34
2022-12-19T05:33:33.671Z,99908.50
2022-12-19T05:36:01.366Z,99915.66
2022-12-19T05:38:29.372Z,99910.13
2022-12-19T05:40:58.632Z,99920.13
2022-12-19T05:43:26.380Z,99897.03
2022-12-19T05:45:53.903Z,99909.41
2022-12-19T05:48:21.351Z,99918.28
2022-12-19T05:50:50.100Z,99912.00
2022-12-19T05:53:20.720Z,99914.78
2022-12-19T05:55:52.050Z,99919.09
2022-12-19T05:58:20.866Z,99925.16
2022-12-19T06:00:48.339Z,99924.44
2022-12-19T06:03:15.847Z,99918.97
2022-12-19T06:05:43.386Z,99917.25
2022-12-19T06:08:11.510Z,99920.88
2022-12-19T06:10:39.061Z,99935.66
2022-12-19T06:13:06.832Z,99912.66
2022-12-19T06:15:35.637Z,99932.81
2022-12-19T06:18:03.104Z,99935.38
2022-12-19T06:20:30.567Z,99923.81
2022-12-19T06:22:58.018Z,99937.13
2022-12-19T06:25:25.489Z,99928.94
2022-12-19T06:27:52.928Z,99922.88
2022-12-19T06:30:20.404Z,99943.34
2022-12-19T06:32:49.193Z,99943.38
2022-12-19T06:35:16.665Z,99944.97
2022-12-19T06:37:44.111Z,99948.25
2022-12-19T06:40:33.739Z,99950.81
2022-12-19T06:43:00.229Z,99944.44
2022-12-19T06:45:27.692Z,99934.81
2022-12-19T06:47:59.461Z,99935.94
2022-12-19T06:50:27.407Z,99925.91
2022-12-19T06:52:54.854Z,99927.66
2022-12-19T06:55:22.360Z,99919.72
2022-12-19T06:57:49.801Z,99926.63
2022-12-19T07:00:17.864Z,99918.84
2022-12-19T07:02:49.099Z,99917.09
2022-12-19T07:05:18.073Z,99929.63
2022-12-19T07:07:45.531Z,99906.47
2022-12-19T07:10:13.061Z,99915.13
2022-12-19T07:12:40.557Z,99904.56
2022-12-19T07:15:08.659Z,99921.31
2022-12-19T07:17:37.137Z,99919.44
2022-12-19T07:20:05.257Z,99921.31
2022-12-19T07:22:37.294Z,99932.41
2022-12-19T07:25:06.912Z,99935.16
2022-12-19T07:27:36.089Z,99938.31
2022-12-19T07:30:05.550Z,99950.72
2022-12-19T07:32:33.067Z,99945.28
2022-12-19T07:35:00.552Z,99941.94
2022-12-19T07:37:28.030Z,99936.13
2022-12-19T07:39:56.830Z,99954.06
2022-12-19T07:42:27.032Z,99945.38
2022-12-19T07:44:58.334Z,99928.31
2022-12-19T07:47:27.458Z,99943.66
2022-12-19T07:49:54.986Z,99950.84
2022-12-19T07:52:22.455Z,99937.41
2022-12-19T07:54:52.701Z,99935.81
2022-12-19T07:57:21.727Z,99929.63
2022-12-19T07:59:49.221Z,99928.19
2022-12-19T08:02:16.735Z,99931.97
2022-12-19T08:04:44.276Z,99941.53
2022-12-19T08:07:12.674Z,99927.09
2022-12-19T08:09:40.155Z,99937.03
2022-12-19T08:12:07.868Z,99936.09
2022-12-19T08:14:36.785Z,99935.19
2022-12-19T08:17:20.418Z,99935.19
2022-12-19T08:19:48.553Z,99940.44
2022-12-19T08:22:15.996Z,99939.69
2022-12-19T08:24:43.415Z,99936.91
2022-12-19T08:27:10.972Z,99936.91
2022-12-19T08:29:39.799Z,99929.69
2022-12-19T08:32:07.246Z,99930.59
2022-12-19T08:34:34.750Z,99943.75
2022-12-19T08:37:02.213Z,99941.91
2022-12-19T08:39:29.696Z,99942.94
2022-12-19T08:41:57.189Z,99933.28
2022-12-19T08:44:24.626Z,99930.50
2022-12-19T08:46:53.552Z,99952.38
2022-12-19T08:49:21.374Z,99953.09
2022-12-19T08:51:48.814Z,99948.28
2022-12-19T08:54:16.576Z,99945.00
2022-12-19T08:56:46.079Z,99951.91
2022-12-19T08:59:16.068Z,99948.19
2022-12-19T09:01:54.581Z,99942.31
2022-12-19T09:05:03.653Z,99947.31
2022-12-19T09:07:09.943Z,99937.81
2022-12-19T09:09:37.409Z,99945.56
2022-12-19T09:12:05.083Z,99934.09
2022-12-19T09:14:34.557Z,99932.19
2022-12-19T09:17:03.452Z,99927.47
2022-12-19T09:19:32.481Z,99944.88
2022-12-19T09:22:00.306Z,99939.59
2022-12-19T09:24:28.180Z,99929.91
2022-12-19T09:26:55.733Z,99924.56
2022-12-19T09:29:23.245Z,99924.72
2022-12-19T09:31:55.651Z,99923.03
2022-12-19T09:34:34.849Z,99916.66
2022-12-19T09:37:06.503Z,99933.50
2022-12-19T09:39:34.883Z,99933.28
2022-12-19T09:42:28.117Z,99936.53
2022-12-19T09:45:11.416Z,99935.75
2022-12-19T09:47:45.020Z,99945.00
2022-12-19T09:50:27.923Z,99943.47
2022-12-19T09:53:01.159Z,99942.56
2022-12-19T09:55:33.940Z,99937.13
2022-12-19T09:58:08.341Z,99948.84
2022-12-19T10:00:40.647Z,99968.78
2022-12-19T10:03:17.181Z,99964.00
2022-12-19T10:06:35.423Z,99971.41
2022-12-19T10:08:54.970Z,99976.97
2022-12-19T10:12:44.176Z,99987.53
2022-12-19T10:14:44.772Z,99976.09
2022-12-19T10:17:25.462Z,99979.66
2022-12-19T10:20:09.596Z,99996.00
2022-12-19T10:22:44.595Z,99985.41
2022-12-19T10:25:35.168Z,99973.03
2022-12-19T10:28:13.393Z,99976.06
2022-12-19T10:30:45.961Z,99969.66
2022-12-19T10:33:22.800Z,99982.88
2022-12-19T10:35:55.239Z,99983.84
2022-12-19T10:38:29.434Z,99978.00
2022-12-19T10:41:14.711Z,99973.88
2022-12-19T10:43:52.045Z,99976.56
2022-12-19T10:46:28.288Z,99960.41
2022-12-19T10:48:55.814Z,99965.75
2022-12-19T10:51:27.185Z,99961.81
2022-12-19T10:53:57.325Z,99954.75
2022-12-19T10:56:31.689Z,99950.47
2022-12-19T10:59:03.984Z,99952.19
2022-12-19T11:01:36.205Z,99958.44
2022-12-19T11:04:21.970Z,99976.09
2022-12-19T11:06:52.327Z,99971.34
2022-12-19T11:09:24.477Z,99966.44
2022-12-19T11:15:27.324Z,99976.91
2022-12-19T11:20:07.136Z,99967.13
2022-12-19T11:23:31.355Z,99960.69
2022-12-19T11:29:31.661Z,99966.22
2022-12-19T11:29:38.524Z,99958.97
2022-12-19T11:30:46.254Z,99951.75
2022-12-19T11:30:46.432Z,99960.56
2022-12-19T11:34:32.030Z,99949.75
2022-12-19T11:37:10.240Z,99933.81
2022-12-19T11:39:42.716Z,99949.09
2022-12-19T11:42:21.422Z,99942.13
2022-12-19T11:44:51.932Z,99944.28
2022-12-19T11:47:32.311Z,99939.28
2022-12-19T11:50:04.432Z,99933.97
2022-12-19T11:55:40.744Z,99945.66
2022-12-19T11:58:11.984Z,99948.19
2022-12-19T12:00:46.421Z,99950.13
2022-12-19T12:03:37.012Z,99950.13
2022-12-19T12:06:12.696Z,99941.16
2022-12-19T12:11:18.240Z,99944.22
2022-12-19T12:18:32.177Z,99948.13
2022-12-19T12:24:26.263Z,99940.81
2022-12-19T12:31:04.227Z,99940.91
2022-12-19T12:31:21.920Z,99939.84
2022-12-19T12:31:22.520Z,99925.03
2022-12-19T12:31:45.833Z,99929.25
2022-12-19T12:31:49.434Z,99931.81
2022-12-19T12:35:42.532Z,99933.88
2022-12-19T12:38:31.701Z,99916.97
2022-12-19T12:41:11.106Z,99916.00
2022-12-19T12:43:58.816Z,99922.94
2022-12-19T12:46:32.330Z,99917.91
2022-12-19T12:49:03.896Z,99899.69
2022-12-19T12:51:33.100Z,99911.44
2022-12-19T12:54:05.014Z,99902.53
2022-12-19T12:56:33.415Z,99899.16
2022-12-19T12:59:21.123Z,99884.81
2022-12-19T13:01:53.172Z,99895.13
2022-12-19T13:04:27.579Z,99887.63
2022-12-19T13:07:31.261Z,99898.16
2022-12-19T13:10:18.597Z,99897.50
2022-12-19T13:13:01.319Z,99897.25
2022-12-19T13:15:37.354Z,99911.84
2022-12-19T13:18:32.546Z,99898.19
2022-12-19T13:21:04.247Z,99903.81
2022-12-19T13:23:44.879Z,99902.22
2022-12-19T13:26:41.993Z,99893.09
2022-12-19T13:29:38.751Z,99895.28
2022-12-19T13:32:15.821Z,99877.75
2022-12-19T13:35:01.346Z,99887.78
2022-12-19T13:39:51.640Z,99894.50
2022-12-19T13:40:35.005Z,99875.31
2022-12-19T13:43:31.356Z,99890.38
2022-12-19T13:46:01.014Z,99880.03
2022-12-19T13:48:34.165Z,99872.94
2022-12-19T13:51:06.209Z,99882.63
2022-12-19T13:53:35.877Z,99877.38
2022-12-19T13:56:05.586Z,99872.66
2022-12-19T13:58:37.595Z,99880.84
2022-12-19T14:01:11.487Z,99872.59
2022-12-19T14:03:51.334Z,99874.34
2022-12-19T14:06:22.664Z,99866.63
2022-12-19T14:09:25.146Z,99863.34
2022-12-19T14:12:25.975Z,99854.69
2022-12-19T14:14:58.037Z,99857.63
2022-12-19T14:17:37.466Z,99847.56
2022-12-19T14:22:03.705Z,99853.34
2022-12-19T14:23:06.374Z,99843.75
2022-12-19T14:28:14.683Z,99840.53
2022-12-19T14:28:39.523Z,99829.38
2022-12-19T14:31:12.190Z,99826.56
2022-12-19T14:33:58.907Z,99830.81
2022-12-19T14:36:33.666Z,99827.59
2022-12-19T14:39:22.153Z,99817.59
2022-12-19T14:42:09.538Z,99825.94
2022-12-19T14:54:08.900Z,99816.81
2022-12-19T14:54:20.956Z,99829.59
2022-12-19T14:54:21.092Z,99817.09
2022-12-19T14:54:45.180Z,99831.50
2022-12-19T14:58:58.432Z,99831.44
2022-12-19T15:01:28.670Z,99834.03
2022-12-19T15:04:52.641Z,99836.00
2022-12-19T15:07:09.009Z,99826.28
2022-12-19T15:10:58.786Z,99837.44
2022-12-19T15:14:57.296Z,99832.44
2022-12-19T15:15:41.020Z,99822.66
2022-12-19T15:18:20.854Z,99820.97
2022-12-19T15:20:48.409Z,99820.53
2022-12-19T15:23:21.655Z,99812.75
2022-12-19T15:26:07.358Z,99807.97
2022-12-19T15:28:39.875Z,99796.47
2022-12-19T15:31:18.087Z,99806.16
2022-12-19T15:34:14.504Z,99801.69
2022-12-19T15:36:33.190Z,99789.16
2022-12-19T15:39:00.687Z,99780.16
2022-12-19T15:41:28.653Z,99772.56
2022-12-19T15:44:05.411Z,99777.72
2022-12-19T15:46:35.430Z,99776.75
2022-12-19T15:49:02.994Z,99768.94
2022-12-19T15:51:30.464Z,99770.00
2022-12-19T15:54:22.242Z,99752.19
2022-12-19T15:56:47.618Z,99750.94
2022-12-19T15:59:34.810Z,99745.31
2022-12-19T16:02:16.259Z,99750.66
2022-12-19T16:04:44.364Z,99750.06
2022-12-19T16:07:15.992Z,99741.19
2022-12-19T16:09:43.512Z,99748.56
2022-12-19T16:12:15.330Z,99766.34
2022-12-19T16:14:43.019Z,99761.63
2022-12-19T16:17:17.426Z,99752.28
2022-12-19T16:19:45.110Z,99766.50
2022-12-19T16:22:18.360Z,99752.47
2022-12-19T16:24:45.841Z,99751.47
2022-12-19T16:27:20.443Z,99770.94
2022-12-19T16:29:48.007Z,99767.53
2022-12-19T16:32:17.538Z,99765.44
2022-12-19T16:34:45.111Z,99754.69
2022-12-19T16:37:12.631Z,99761.09
2022-12-19T16:39:40.101Z,99780.69
2022-12-19T16:42:15.583Z,99787.31
2022-12-19T16:44:44.653Z,99791.00
2022-12-19T16:47:14.108Z,99809.41
2022-12-19T16:49:43.557Z,99794.69
2022-12-19T16:52:11.177Z,99803.41
2022-12-19T16:54:38.639Z,99800.09
2022-12-19T16:57:15.564Z,99793.56
2022-12-19T16:59:43.205Z,99795.38
2022-12-19T17:02:36.351Z,99800.75
2022-12-19T17:05:06.216Z,99806.63
2022-12-19T17:07:33.683Z,99795.22
2022-12-19T17:10:01.207Z,99792.72
2022-12-19T17:12:29.185Z,99795.72
2022-12-19T17:14:56.679Z,99805.66
2022-12-19T17:17:24.736Z,99775.47
2022-12-19T17:19:52.421Z,99778.56
2022-12-19T17:22:21.552Z,99771.25
2022-12-19T17:24:50.061Z,99781.22
2022-12-19T17:27:19.106Z,99776.53
2022-12-19T17:29:47.074Z,99795.88
2022-12-19T17:32:23.302Z,99799.16
2022-12-19T17:34:52.682Z,99793.44
2022-12-19T17:37:21.800Z,99796.22
2022-12-19T17:39:49.341Z,99801.97
2022-12-19T17:42:22.462Z,99798.44
2022-12-19T17:44:50.227Z,99811.81
2022-12-19T17:47:19.929Z,99798.94
2022-12-19T17:49:48.944Z,99801.06
2022-12-19T17:52:19.236Z,99806.22
2022-12-19T17:54:48.420Z,99798.97
2022-12-19T17:57:17.147Z,99797.91
2022-12-19T17:59:46.313Z,99817.50
2022-12-19T18:02:21.521Z,99810.75
2022-12-19T18:04:49.025Z,99830.53
2022-12-19T18:07:19.088Z,99815.16
2022-12-19T18:09:48.042Z,99818.50
2022-12-19T18:12:15.707Z,99813.97
2022-12-19T18:14:43.318Z,99814.09
2022-12-19T18:17:12.702Z,99823.94
2022-12-19T18:19:40.824Z,99835.16
2022-12-19T18:22:13.104Z,99841.00
2022-12-19T18:24:40.745Z,99834.13
2022-12-19T18:27:09.681Z,99830.72
2022-12-19T18:29:37.169Z,99832.78
2022-12-19T18:32:04.944Z,99822.75
2022-12-19T18:34:35.435Z,99831.06
2022-12-19T18:37:05.276Z,99828.28
2022-12-19T18:39:33.982Z,99828.47
2022-12-19T18:42:01.882Z,99816.00
2022-12-19T18:44:30.891Z,99801.38
2022-12-19T18:46:58.896Z,99811.75
2022-12-19T18:49:28.609Z,99801.50
2022-12-19T18:51:56.276Z,99814.03
2022-12-19T18:54:23.758Z,99840.78
2022-12-19T18:56:51.818Z,99831.53
2022-12-19T18:59:19.934Z,99830.78
2022-12-19T19:01:48.867Z,99831.22
2022-12-19T19:04:17.835Z,99824.78
2022-12-19T19:06:50.889Z,99824.66
2022-12-19T19:09:20.870Z,99817.28
2022-12-19T19:11:48.447Z,99825.19
2022-12-19T19:14:15.968Z,99824.09
2022-12-19T19:16:43.731Z,99814.69
2022-12-19T19:19:17.661Z,99808.84
2022-12-19T19:21:45.175Z,99823.44
2022-12-19T19:24:15.800Z,99829.06
2022-12-19T19:26:43.334Z,99836.03
2022-12-19T19:29:13.326Z,99839.88
2022-12-19T19:31:43.500Z,99829.22
2022-12-19T19:34:16.348Z,99837.00
2022-12-19T19:36:49.318Z,99845.84
2022-12-19T19:39:17.491Z,99846.53
2022-12-19T19:41:44.964Z,99853.13
2022-12-19T19:44:12.528Z,99849.09
2022-12-19T19:46:40.045Z,99852.00
2022-12-19T19:49:07.612Z,99854.34
2022-12-19T19:51:36.454Z,99841.22
2022-12-19T19:54:03.928Z,99850.78
2022-12-19T19:56:32.242Z,99853.88
2022-12-19T19:59:00.590Z,99853.50
2022-12-19T20:01:28.440Z,99856.31
2022-12-19T20:03:56.074Z,99844.22
2022-12-19T20:06:23.637Z,99853.38
2022-12-19T20:08:52.550Z,99857.09
2022-12-19T20:11:20.682Z,99849.75
2022-12-19T20:13:48.173Z,99849.19
2022-12-19T20:16:17.904Z,99866.13
2022-12-19T20:18:48.392Z,99858.88
2022-12-19T20:21:15.945Z,99864.13
2022-12-19T20:23:44.647Z,99863.69
2022-12-19T20:26:16.142Z,99868.50
2022-12-19T20:28:49.077Z,99853.88
2022-12-19T20:31:19.110Z,99857.91
2022-12-19T20:33:48.010Z,99859.91
2022-12-19T20:36:15.856Z,99867.59
2022-12-19T20:38:43.706Z,99856.03
2022-12-19T20:41:11.352Z,99844.47
2022-12-19T20:43:40.216Z,99842.25
2022-12-19T20:46:09.668Z,99836.47
2022-12-19T20:48:37.701Z,99839.25
2022-12-19T20:51:06.189Z,99836.50
2022-12-19T20:53:34.546Z,99833.84
2022-12-19T20:56:05.349Z,99845.13
2022-12-19T20:58:35.161Z,99825.22
2022-12-19T21:01:07.306Z,99830.28
2022-12-19T21:03:35.455Z,99834.56
2022-12-19T21:06:04.016Z,99828.53
2022-12-19T21:08:31.920Z,99833.00
2022-12-19T21:11:01.054Z,99835.28
2022-12-19T21:13:28.782Z,99848.50
2022-12-19T21:15:58.364Z,99845.72
2022-12-19T21:18:28.148Z,99853.81
2022-12-19T21:20:56.629Z,99858.16
2022-12-19T21:23:25.189Z,99853.44
2022-12-19T21:25:53.243Z,99843.97
2022-12-19T21:28:21.240Z,99855.84
2022-12-19T21:30:56.233Z,99849.78
2022-12-19T21:33:23.779Z,99842.31
2022-12-19T21:35:52.598Z,99830.66
2022-12-19T21:38:20.334Z,99836.09
2022-12-19T21:40:47.806Z,99823.38
2022-12-19T21:43:15.267Z,99850.97
2022-12-19T21:45:42.830Z,99827.69
2022-12-19T21:48:10.363Z,99830.66
2022-12-19T21:50:37.850Z,99825.03
2022-12-19T21:53:06.677Z,99826.81
2022-12-19T21:55:34.145Z,99825.72
2022-12-19T21:58:01.588Z,99836.47
2022-12-19T22:00:29.086Z,99832.38
2022-12-19T22:03:13.468Z,99820.31
2022-12-19T22:05:42.178Z,99828.84
2022-12-19T22:08:11.879Z,99825.22
2022-12-19T22:10:39.461Z,99829.66
2022-12-19T22:13:06.961Z,99829.19
2022-12-19T22:15:36.474Z,99828.53
2022-12-19T22:18:03.965Z,99818.69
2022-12-19T22:20:31.430Z,99809.19
2022-12-19T22:22:58.924Z,99807.19
2022-12-19T22:25:27.728Z,99793.56
2022-12-19T22:27:56.288Z,99791.75
2022-12-19T22:30:23.754Z,99800.06
2022-12-19T22:32:51.213Z,99780.22
2022-12-19T22:35:18.709Z,99777.81
2022-12-19T22:37:46.323Z,99794.56
2022-12-19T22:40:14.242Z,99796.41
2022-12-19T22:42:43.088Z,99811.84
2022-12-19T22:45:11.268Z,99812.84
2022-12-19T22:47:41.851Z,99806.97
2022-12-19T22:50:10.323Z,99825.81
2022-12-19T22:52:38.577Z,99834.22
2022-12-19T22:55:07.040Z,99842.81
2022-12-19T22:57:34.567Z,99833.09
2022-12-19T23:00:04.855Z,99832.53
2022-12-19T23:02:32.533Z,99823.84
2022-12-19T23:05:00.149Z,99827.69
2022-12-19T23:07:27.596Z,99821.31
2022-12-19T23:09:55.276Z,99812.78
2022-12-19T23:12:22.721Z,99812.75
2022-12-19T23:14:52.465Z,99812.72
2022-12-19T23:17:21.264Z,99819.47
2022-12-19T23:19:48.727Z,99824.38
2022-12-19T23:22:16.195Z,99820.19
2022-12-19T23:24:45.664Z,99817.97
2022-12-19T23:27:13.301Z,99817.06
2022-12-19T23:29:40.831Z,99824.31
2022-12-19T23:32:08.337Z,99822.31
2022-12-19T23:34:38.503Z,99816.22
2022-12-19T23:37:11.055Z,99810.53
2022-12-19T23:39:38.869Z,99805.41
2022-12-19T23:42:06.422Z,99789.19
2022-12-19T23:44:34.138Z,99790.63
2022-12-19T23:47:03.796Z,99777.09
2022-12-19T23:49:31.939Z,99772.66
2022-12-19T23:52:00.814Z,99761.66
2022-12-19T23:54:28.534Z,99769.28
2022-12-19T23:56:55.998Z,99763.22
2022-12-19T23:59:23.608Z,99754.94
